Time;durP1;ratioP1;P1;durP2;ratioP2;P2;SDS_P1;SDS_P2;PMS_P1;PMS_P2;Temp;Humidity;BMP_temperature;BMP_pressure;BME280_temperature;BME280_humidity;BME280_pressure;Samples;Min_cycle;Max_cycle;Signal;HPM_P1;HPM_P2
2023/05/18 00:01:02;;;;;;;9.10;3.67;;;17.30;93.40;;;;;;6245599;23;20004;-83
2023/05/18 00:03:28;;;;;;;9.45;3.40;;;17.30;93.50;;;;;;6246689;23;20016;-85
2023/05/18 00:06:03;;;;;;;7.80;3.63;;;17.30;93.50;;;;;;6246054;23;20022;-84
2023/05/18 00:08:29;;;;;;;6.82;3.03;;;17.30;93.50;;;;;;6245678;23;20464;-83
2023/05/18 00:10:54;;;;;;;5.18;3.03;;;17.40;93.60;;;;;;6246170;23;20020;-83
2023/05/18 00:13:20;;;;;;;7.28;3.10;;;17.40;93.60;;;;;;6245810;23;20430;-84
2023/05/18 00:15:46;;;;;;;10.30;3.35;;;17.40;93.60;;;;;;6245611;23;20430;-84
2023/05/18 00:18:12;;;;;;;7.47;3.20;;;17.40;93.50;;;;;;6247020;23;20330;-82
2023/05/18 00:20:37;;;;;;;6.30;3.10;;;17.30;93.50;;;;;;6222164;23;20008;-83
2023/05/18 00:23:04;;;;;;;16.73;4.00;;;17.20;93.50;;;;;;6248312;23;20042;-84
2023/05/18 00:25:30;;;;;;;6.22;2.92;;;17.20;93.70;;;;;;6220221;23;20004;-83
2023/05/18 00:27:56;;;;;;;7.95;3.92;;;17.10;93.60;;;;;;6247153;23;20000;-84
2023/05/18 00:30:24;;;;;;;6.18;3.80;;;17.10;93.80;;;;;;6247113;23;20035;-84
2023/05/18 00:32:50;;;;;;;7.22;3.78;;;17.20;93.90;;;;;;6247409;23;20066;-84
2023/05/18 00:35:16;;;;;;;8.80;4.03;;;17.10;94.20;;;;;;6248254;23;20000;-83
2023/05/18 00:37:41;;;;;;;6.78;4.03;;;17.20;94.10;;;;;;6248185;23;20015;-84
2023/05/18 00:40:08;;;;;;;9.05;4.50;;;17.20;94.10;;;;;;6247926;23;20058;-84
2023/05/18 00:42:33;;;;;;;8.23;4.60;;;17.20;94.10;;;;;;6248320;23;20426;-83
2023/05/18 00:44:59;;;;;;;11.85;4.43;;;17.20;94.20;;;;;;6248691;23;20004;-84
2023/05/18 00:47:26;;;;;;;9.85;4.32;;;17.20;94.20;;;;;;6221701;23;20034;-85
2023/05/18 00:49:53;;;;;;;8.88;4.20;;;17.20;94.20;;;;;;6248998;23;20084;-83
2023/05/18 00:52:20;;;;;;;10.35;4.68;;;17.20;94.20;;;;;;6246721;23;20442;-83
2023/05/18 00:54:46;;;;;;;10.13;4.63;;;17.20;94.40;;;;;;6246748;23;20001;-84
2023/05/18 00:57:11;;;;;;;8.20;4.97;;;17.20;94.40;;;;;;6246629;23;20612;-84
2023/05/18 00:59:38;;;;;;;9.00;4.53;;;17.10;94.30;;;;;;6246252;23;20000;-83
2023/05/18 01:02:04;;;;;;;10.35;4.55;;;17.10;94.40;;;;;;6246533;23;20004;-83
2023/05/18 01:04:30;;;;;;;11.32;4.85;;;17.10;94.50;;;;;;6248664;23;20016;-82
2023/05/18 01:06:57;;;;;;;8.82;4.47;;;17.00;94.50;;;;;;6254643;23;20019;-83
2023/05/18 01:09:23;;;;;;;10.30;4.88;;;17.00;94.50;;;;;;6246974;23;20394;-84
2023/05/18 01:11:58;;;;;;;8.70;4.25;;;17.00;94.60;;;;;;6246941;23;20062;-84
2023/05/18 01:14:36;;;;;;;8.43;4.95;;;17.00;94.50;;;;;;6246850;23;20099;-83
2023/05/18 01:17:11;;;;;;;8.68;4.20;;;17.10;94.50;;;;;;6247140;23;20000;-85
2023/05/18 01:19:37;;;;;;;9.55;4.25;;;17.10;94.70;;;;;;6246745;23;20004;-83
2023/05/18 01:22:15;;;;;;;7.18;4.72;;;17.10;94.70;;;;;;6246811;23;20315;-84
2023/05/18 01:24:47;;;;;;;8.60;4.13;;;17.10;94.60;;;;;;6219499;23;20008;-83
2023/05/18 01:27:16;;;;;;;7.00;4.25;;;17.20;94.60;;;;;;6246495;23;20056;-84
2023/05/18 01:29:47;;;;;;;7.63;4.40;;;17.20;94.60;;;;;;6246758;23;20004;-84
2023/05/18 01:32:22;;;;;;;8.63;4.90;;;17.20;94.30;;;;;;6246156;23;20307;-83
2023/05/18 01:34:48;;;;;;;9.43;4.85;;;17.20;94.50;;;;;;6246480;23;19996;-83
2023/05/18 01:37:14;;;;;;;9.05;4.95;;;17.20;94.50;;;;;;6251360;23;20063;-83
2023/05/18 01:39:40;;;;;;;9.15;5.30;;;17.10;94.50;;;;;;6230556;23;20008;-83
2023/05/18 01:42:14;;;;;;;12.65;4.90;;;17.10;94.60;;;;;;6246265;23;20452;-84
2023/05/18 01:44:45;;;;;;;9.68;4.90;;;17.00;94.60;;;;;;6230710;23;20123;-83
2023/05/18 01:47:15;;;;;;;10.52;5.13;;;17.00;94.70;;;;;;6257673;23;20004;-83
2023/05/18 01:49:44;;;;;;;10.60;4.70;;;17.00;94.80;;;;;;6253404;23;20023;-83
2023/05/18 01:52:21;;;;;;;14.05;5.50;;;17.00;94.70;;;;;;6222976;23;20055;-84
2023/05/18 01:54:52;;;;;;;8.82;4.82;;;17.00;94.80;;;;;;6254926;23;20079;-84
2023/05/18 01:57:22;;;;;;;7.53;4.80;;;17.00;94.70;;;;;;6255313;23;20030;-83
2023/05/18 01:59:48;;;;;;;7.40;5.20;;;17.00;94.70;;;;;;6220155;23;20349;-85
2023/05/18 02:02:14;;;;;;;7.57;5.18;;;17.00;94.70;;;;;;6245979;23;20071;-83
2023/05/18 02:04:40;;;;;;;9.75;4.95;;;17.00;94.60;;;;;;6246614;23;20004;-84
2023/05/18 02:07:06;;;;;;;10.52;5.60;;;17.00;94.70;;;;;;6246177;23;20398;-84
2023/05/18 02:09:31;;;;;;;8.45;5.80;;;17.00;94.60;;;;;;6245759;23;20004;-84
2023/05/18 02:11:57;;;;;;;10.02;5.75;;;17.00;94.60;;;;;;6246201;23;20101;-85
2023/05/18 02:14:23;;;;;;;17.58;6.00;;;17.10;94.70;;;;;;6245863;23;20002;-84
2023/05/18 02:16:51;;;;;;;8.45;6.05;;;17.10;94.60;;;;;;6245636;23;20004;-83
2023/05/18 02:19:20;;;;;;;14.23;7.10;;;17.10;94.50;;;;;;6245682;23;20358;-84
2023/05/18 02:21:46;;;;;;;9.40;5.63;;;17.10;94.70;;;;;;6245964;23;20015;-85
2023/05/18 02:24:12;;;;;;;9.52;5.75;;;17.00;94.70;;;;;;6245826;23;20045;-85
2023/05/18 02:26:38;;;;;;;9.23;5.80;;;17.00;94.70;;;;;;6246088;23;20036;-84
2023/05/18 02:29:10;;;;;;;11.43;5.63;;;17.00;94.80;;;;;;6245525;23;20306;-82
2023/05/18 02:31:36;;;;;;;9.73;6.82;;;17.00;94.80;;;;;;6245047;23;20008;-84
2023/05/18 02:34:02;;;;;;;9.93;6.05;;;17.10;94.80;;;;;;6245499;23;20000;-84
2023/05/18 02:36:35;;;;;;;9.10;6.10;;;17.00;94.70;;;;;;6245726;23;20050;-84
2023/05/18 02:39:03;;;;;;;10.63;6.57;;;17.00;94.80;;;;;;6247064;23;20276;-82
2023/05/18 02:41:29;;;;;;;11.82;6.22;;;17.00;94.70;;;;;;6245767;23;20079;-84
2023/05/18 02:43:55;;;;;;;13.35;6.80;;;17.00;94.80;;;;;;6245026;23;20098;-83
2023/05/18 02:46:20;;;;;;;11.20;5.93;;;17.00;94.80;;;;;;6245273;23;20008;-84
2023/05/18 02:48:46;;;;;;;13.02;6.65;;;17.00;95.00;;;;;;6245959;23;20000;-84
2023/05/18 02:51:12;;;;;;;9.02;6.63;;;17.00;94.90;;;;;;6245639;23;20008;-84
2023/05/18 02:53:39;;;;;;;10.70;6.07;;;17.00;95.00;;;;;;6245687;23;20483;-83
2023/05/18 02:56:04;;;;;;;12.05;7.07;;;17.00;95.00;;;;;;6245564;23;19996;-84
2023/05/18 02:58:30;;;;;;;11.80;6.57;;;17.00;95.00;;;;;;6245425;23;20011;-84
2023/05/18 03:00:56;;;;;;;11.07;6.43;;;17.00;95.00;;;;;;6218614;23;20050;-84
2023/05/18 03:03:24;;;;;;;12.50;7.07;;;16.90;95.00;;;;;;6245136;23;20048;-83
2023/05/18 03:05:53;;;;;;;9.98;6.55;;;16.90;95.00;;;;;;6245377;23;20007;-84
2023/05/18 03:08:21;;;;;;;9.18;6.28;;;16.90;95.00;;;;;;6245861;23;20087;-84
2023/05/18 03:10:47;;;;;;;7.50;5.72;;;16.90;95.10;;;;;;6245245;23;20015;-83
2023/05/18 03:13:13;;;;;;;10.30;6.93;;;16.80;95.10;;;;;;6245620;23;20003;-84
2023/05/18 03:15:39;;;;;;;8.43;6.50;;;16.80;95.20;;;;;;6245665;23;20004;-84
2023/05/18 03:18:05;;;;;;;11.25;5.90;;;16.70;95.20;;;;;;6245574;23;20307;-84
2023/05/18 03:20:31;;;;;;;7.32;5.35;;;16.70;95.60;;;;;;6245275;23;20434;-85
2023/05/18 03:22:57;;;;;;;10.02;5.60;;;16.70;95.40;;;;;;6245206;23;20051;-84
2023/05/18 03:25:24;;;;;;;10.63;6.13;;;16.70;95.40;;;;;;6245191;23;20326;-83
2023/05/18 03:27:51;;;;;;;6.93;4.97;;;16.60;95.40;;;;;;6245248;23;20071;-84
2023/05/18 03:30:18;;;;;;;8.50;4.90;;;16.60;95.40;;;;;;6245424;23;20410;-83
2023/05/18 03:32:46;;;;;;;6.70;5.20;;;16.60;95.40;;;;;;6245182;23;20453;-84
2023/05/18 03:35:12;;;;;;;8.15;4.85;;;16.60;95.40;;;;;;6245251;23;20011;-84
2023/05/18 03:37:37;;;;;;;11.05;5.53;;;16.60;95.40;;;;;;6247883;23;20397;-82
2023/05/18 03:40:12;;;;;;;10.57;5.43;;;16.60;95.40;;;;;;6250268;23;20000;-83
2023/05/18 03:42:39;;;;;;;10.52;6.53;;;16.60;95.40;;;;;;6219270;23;20094;-84
2023/05/18 03:45:05;;;;;;;12.63;5.90;;;16.50;95.30;;;;;;6245080;23;20032;-84
2023/05/18 03:47:31;;;;;;;11.07;5.80;;;16.50;95.40;;;;;;6245263;23;20330;-83
2023/05/18 03:49:56;;;;;;;9.13;6.20;;;16.60;95.40;;;;;;6245657;23;20016;-84
2023/05/18 03:52:22;;;;;;;11.90;6.43;;;16.60;95.40;;;;;;6245647;23;20000;-83
2023/05/18 03:54:48;;;;;;;11.60;7.20;;;16.60;95.40;;;;;;6218597;23;20039;-84
2023/05/18 03:57:17;;;;;;;8.70;6.15;;;16.60;95.40;;;;;;6246954;23;20007;-84
2023/05/18 03:59:44;;;;;;;10.68;6.32;;;16.50;95.40;;;;;;6247371;23;20031;-84
2023/05/18 04:02:10;;;;;;;11.80;6.35;;;16.50;95.40;;;;;;6246926;23;20004;-82
2023/05/18 04:04:40;;;;;;;13.43;7.45;;;16.50;95.50;;;;;;6246918;23;20083;-84
2023/05/18 04:07:07;;;;;;;16.20;6.80;;;16.50;95.60;;;;;;6251319;23;20509;-84
2023/05/18 04:09:32;;;;;;;9.73;6.50;;;16.50;95.50;;;;;;6255199;23;20004;-84
2023/05/18 04:11:58;;;;;;;10.95;6.47;;;16.50;95.40;;;;;;6248281;23;20011;-84
2023/05/18 04:14:26;;;;;;;13.68;6.40;;;16.50;95.50;;;;;;6248464;23;20007;-84
2023/05/18 04:16:52;;;;;;;14.75;6.43;;;16.50;95.60;;;;;;6247691;23;20013;-84
2023/05/18 04:19:20;;;;;;;10.35;6.30;;;16.50;95.60;;;;;;6247608;23;19997;-84
2023/05/18 04:21:47;;;;;;;9.43;6.05;;;16.50;95.50;;;;;;6247216;23;20004;-83
2023/05/18 04:24:15;;;;;;;10.77;6.57;;;16.50;95.50;;;;;;6247586;23;20015;-84
2023/05/18 04:26:41;;;;;;;10.85;6.13;;;16.60;95.60;;;;;;6247600;23;20057;-83
2023/05/18 04:29:09;;;;;;;13.77;6.30;;;16.50;95.50;;;;;;6247764;23;20067;-84
2023/05/18 04:31:36;;;;;;;10.38;6.10;;;16.50;95.60;;;;;;6259582;23;20008;-82
2023/05/18 04:34:02;;;;;;;10.57;5.75;;;16.60;95.30;;;;;;6265214;23;19996;-83
2023/05/18 04:36:29;;;;;;;8.73;5.05;;;16.60;95.30;;;;;;6260149;23;20043;-83
2023/05/18 04:38:58;;;;;;;12.13;4.88;;;16.50;95.20;;;;;;6267923;23;20036;-82
2023/05/18 04:41:27;;;;;;;7.85;4.65;;;16.50;95.10;;;;;;6255167;23;19996;-84
2023/05/18 04:43:53;;;;;;;9.40;4.70;;;16.50;95.00;;;;;;6247971;23;20083;-82
2023/05/18 04:46:21;;;;;;;11.05;4.82;;;16.50;95.00;;;;;;6248353;23;20031;-84
2023/05/18 04:48:48;;;;;;;9.63;5.28;;;16.50;94.90;;;;;;6248260;23;20031;-84
2023/05/18 04:51:20;;;;;;;9.52;5.07;;;16.50;94.80;;;;;;6247093;23;20082;-84
2023/05/18 04:53:48;;;;;;;7.38;4.40;;;16.50;94.70;;;;;;6246741;23;20004;-83
2023/05/18 04:56:19;;;;;;;8.32;4.28;;;16.50;94.70;;;;;;6219925;23;20008;-83
2023/05/18 04:58:47;;;;;;;8.27;4.97;;;16.60;94.70;;;;;;6247021;23;20071;-84
2023/05/18 05:01:17;;;;;;;9.23;4.88;;;16.60;94.60;;;;;;6220079;23;20008;-83
2023/05/18 05:03:43;;;;;;;9.88;4.47;;;16.60;94.50;;;;;;6249027;23;20016;-84
2023/05/18 05:06:09;;;;;;;9.52;4.95;;;16.70;94.50;;;;;;6246975;23;20000;-84
2023/05/18 05:08:36;;;;;;;10.15;4.95;;;16.70;94.40;;;;;;6247900;23;20076;-84
2023/05/18 05:11:03;;;;;;;11.18;4.38;;;16.80;94.30;;;;;;6219591;23;20044;-84
2023/05/18 05:13:29;;;;;;;15.23;4.80;;;17.00;94.10;;;;;;6246759;23;20248;-84
2023/05/18 05:15:54;;;;;;;15.40;5.07;;;17.20;93.90;;;;;;6246276;23;20338;-84
2023/05/18 05:18:20;;;;;;;10.35;4.43;;;17.30;93.70;;;;;;6246435;23;20000;-72
2023/05/18 05:20:47;;;;;;;10.25;4.85;;;17.40;93.50;;;;;;6246734;23;20003;-84
2023/05/18 05:23:12;;;;;;;7.72;4.13;;;17.50;93.40;;;;;;6246439;23;20039;-84
2023/05/18 05:25:38;;;;;;;9.50;4.70;;;17.60;93.20;;;;;;6246495;23;20492;-84
2023/05/18 05:28:04;;;;;;;6.68;4.22;;;17.70;93.10;;;;;;6246205;23;20000;-84
2023/05/18 05:30:30;;;;;;;10.75;3.92;;;17.70;93.00;;;;;;6246426;23;20397;-84
2023/05/18 05:32:56;;;;;;;10.35;4.00;;;17.70;92.90;;;;;;6247606;23;20023;-84
2023/05/18 05:35:22;;;;;;;7.15;3.80;;;17.60;92.90;;;;;;6228074;23;20015;-83
2023/05/18 05:37:47;;;;;;;11.73;4.38;;;17.60;92.90;;;;;;6247436;23;19996;-84
2023/05/18 05:40:13;;;;;;;7.53;3.17;;;17.60;92.90;;;;;;6247163;23;20000;-84
2023/05/18 05:42:40;;;;;;;7.28;3.47;;;17.60;92.80;;;;;;6246812;23;20008;-83
2023/05/18 05:45:07;;;;;;;7.57;3.33;;;17.70;92.70;;;;;;6247138;23;20004;-84
2023/05/18 05:47:32;;;;;;;7.47;3.28;;;17.80;92.60;;;;;;6247035;23;20329;-84
2023/05/18 05:49:58;;;;;;;9.77;4.00;;;17.90;92.50;;;;;;6247688;23;20079;-83
2023/05/18 05:52:27;;;;;;;7.32;3.38;;;17.90;92.30;;;;;;6246794;23;20066;-81
2023/05/18 05:54:53;;;;;;;12.20;3.50;;;18.00;92.20;;;;;;6247951;23;19996;-79
2023/05/18 05:57:19;;;;;;;11.63;3.70;;;18.00;92.10;;;;;;6220323;23;20004;-82
2023/05/18 05:59:45;;;;;;;7.90;2.97;;;18.00;92.00;;;;;;6220015;23;20012;-81
2023/05/18 06:02:11;;;;;;;9.82;2.97;;;18.10;92.00;;;;;;6246721;23;20028;-83
2023/05/18 06:04:37;;;;;;;7.18;2.90;;;18.20;91.70;;;;;;6246151;23;20012;-79
2023/05/18 06:07:03;;;;;;;18.00;3.67;;;18.30;91.50;;;;;;6246292;23;20000;-79
2023/05/18 06:09:28;;;;;;;14.35;4.15;;;18.40;91.40;;;;;;6245883;23;20037;-80
2023/05/18 06:11:54;;;;;;;14.45;3.55;;;18.50;91.20;;;;;;6246120;23;20004;-81
2023/05/18 06:14:20;;;;;;;11.45;3.20;;;18.60;91.20;;;;;;6245937;23;20003;-80
2023/05/18 06:16:46;;;;;;;11.18;3.22;;;18.50;91.10;;;;;;6246172;23;20004;-81
2023/05/18 06:19:12;;;;;;;10.52;3.10;;;18.60;90.90;;;;;;6246226;23;20001;-82
2023/05/18 06:21:38;;;;;;;5.88;2.75;;;18.60;90.80;;;;;;6247622;23;20062;-80
2023/05/18 06:24:04;;;;;;;9.52;3.70;;;18.70;90.70;;;;;;6246249;23;20004;-80
2023/05/18 06:26:30;;;;;;;9.05;3.33;;;18.70;90.60;;;;;;6246171;23;20011;-80
2023/05/18 06:28:56;;;;;;;8.65;3.60;;;18.80;90.50;;;;;;6245795;23;20334;-80
2023/05/18 06:31:22;;;;;;;8.15;2.92;;;18.80;90.30;;;;;;6245517;23;20055;-82
2023/05/18 06:33:48;;;;;;;7.20;2.95;;;18.90;90.20;;;;;;6245597;23;19997;-80
2023/05/18 06:36:15;;;;;;;7.88;3.33;;;18.90;90.20;;;;;;6245716;23;20000;-80
2023/05/18 06:38:41;;;;;;;11.23;3.20;;;19.00;90.10;;;;;;6245701;23;20019;-80
2023/05/18 06:41:07;;;;;;;10.85;3.00;;;19.20;90.00;;;;;;6245367;23;20397;-80
2023/05/18 06:43:33;;;;;;;13.65;3.63;;;19.30;89.50;;;;;;6244952;23;20005;-81
2023/05/18 06:45:58;;;;;;;5.60;2.90;;;19.40;89.00;;;;;;6245328;23;20325;-81
2023/05/18 06:48:27;;;;;;;7.50;2.92;;;19.50;88.80;;;;;;6245331;23;19996;-80
2023/05/18 06:50:53;;;;;;;7.13;3.50;;;19.60;88.60;;;;;;6245653;23;20011;-80
2023/05/18 06:53:19;;;;;;;10.85;4.85;;;19.60;88.20;;;;;;6244837;23;20087;-81
2023/05/18 06:55:45;;;;;;;14.52;4.95;;;19.60;88.10;;;;;;6245142;23;20004;-79
2023/05/18 06:58:12;;;;;;;8.05;3.55;;;19.50;88.00;;;;;;6245430;23;20299;-77
2023/05/18 07:00:38;;;;;;;8.38;3.30;;;19.40;88.00;;;;;;6244956;23;20434;-80
2023/05/18 07:03:04;;;;;;;15.68;3.85;;;19.50;88.30;;;;;;6245338;23;20091;-80
2023/05/18 07:05:30;;;;;;;10.50;3.45;;;19.50;88.20;;;;;;6246117;23;20055;-80
2023/05/18 07:07:56;;;;;;;11.57;3.10;;;19.50;87.90;;;;;;6245447;23;20421;-80
2023/05/18 07:10:22;;;;;;;7.22;3.85;;;19.50;87.80;;;;;;6245297;23;20035;-79
2023/05/18 07:12:48;;;;;;;8.45;3.47;;;19.60;87.40;;;;;;6218207;23;20012;-82
2023/05/18 07:15:15;;;;;;;9.55;3.67;;;19.60;86.80;;;;;;6245814;23;20109;-80
2023/05/18 07:17:41;;;;;;;8.73;4.28;;;19.80;87.10;;;;;;6245151;23;20072;-80
2023/05/18 07:20:07;;;;;;;10.43;3.35;;;19.80;86.60;;;;;;6245539;23;20007;-80
2023/05/18 07:22:33;;;;;;;6.72;3.33;;;19.80;86.00;;;;;;6245434;23;20004;-81
2023/05/18 07:24:59;;;;;;;6.97;2.80;;;19.80;86.00;;;;;;6247824;23;20000;-80
2023/05/18 07:27:26;;;;;;;9.38;3.00;;;19.80;86.10;;;;;;6248212;23;20019;-79
2023/05/18 07:29:52;;;;;;;6.32;2.80;;;19.80;86.00;;;;;;6245564;23;20101;-80
2023/05/18 07:32:18;;;;;;;5.95;3.55;;;19.80;86.00;;;;;;6244798;23;20350;-81
2023/05/18 07:34:45;;;;;;;11.00;3.55;;;19.80;86.10;;;;;;6245180;23;20001;-80
2023/05/18 07:37:11;;;;;;;13.75;3.80;;;19.80;86.10;;;;;;6244972;23;20004;-80
2023/05/18 07:39:37;;;;;;;11.38;4.22;;;19.80;86.20;;;;;;6245152;23;20429;-82
2023/05/18 07:42:03;;;;;;;10.30;2.90;;;19.90;86.10;;;;;;6246119;23;20000;-79
2023/05/18 07:44:29;;;;;;;9.95;2.85;;;19.90;86.00;;;;;;6245267;23;20000;-80
2023/05/18 07:46:55;;;;;;;9.15;3.25;;;20.00;85.70;;;;;;6246034;23;20075;-79
2023/05/18 07:49:24;;;;;;;7.13;2.80;;;20.10;85.40;;;;;;6246972;23;19996;-79
2023/05/18 07:51:51;;;;;;;4.88;2.53;;;20.20;85.40;;;;;;6252584;23;20012;-80
2023/05/18 07:54:18;;;;;;;10.93;2.50;;;20.40;84.80;;;;;;6246436;23;20023;-81
2023/05/18 07:56:43;;;;;;;4.57;2.28;;;20.50;84.60;;;;;;6246101;23;20004;-80
2023/05/18 07:59:10;;;;;;;8.13;2.60;;;20.60;84.00;;;;;;6246535;23;20008;-81
2023/05/18 08:01:37;;;;;;;7.78;2.33;;;20.60;84.40;;;;;;6250087;23;19996;-82
2023/05/18 08:04:03;;;;;;;7.65;2.20;;;20.70;83.70;;;;;;6250615;23;20091;-80
2023/05/18 08:06:30;;;;;;;7.82;2.20;;;20.70;83.60;;;;;;6250448;23;20001;-83
2023/05/18 08:08:56;;;;;;;6.70;1.98;;;20.80;83.60;;;;;;6223217;23;20062;-82
2023/05/18 08:11:23;;;;;;;9.32;1.65;;;20.90;83.10;;;;;;6251453;23;20346;-80
2023/05/18 08:13:49;;;;;;;5.68;1.73;;;20.90;82.70;;;;;;6246268;23;20077;-81
2023/05/18 08:16:14;;;;;;;4.32;1.77;;;21.00;82.50;;;;;;6246529;23;20418;-81
2023/05/18 08:18:40;;;;;;;10.35;1.80;;;21.00;81.90;;;;;;6246690;23;20047;-82
2023/05/18 08:21:08;;;;;;;9.40;1.80;;;21.00;81.90;;;;;;6246386;23;20445;-82
2023/05/18 08:23:35;;;;;;;7.50;1.60;;;21.00;81.70;;;;;;6245732;23;20000;-85
2023/05/18 08:26:04;;;;;;;7.50;2.53;;;21.00;81.70;;;;;;6245722;23;20341;-82
2023/05/18 08:28:30;;;;;;;120.95;14.93;;;20.90;82.00;;;;;;6245504;23;19996;-80
2023/05/18 08:30:56;;;;;;;8.55;2.45;;;20.90;81.80;;;;;;6246213;23;20319;-81
2023/05/18 08:33:22;;;;;;;21.63;4.32;;;20.80;81.80;;;;;;6245788;23;20011;-81
2023/05/18 08:35:48;;;;;;;9.32;1.88;;;20.80;81.90;;;;;;6245297;23;20007;-83
2023/05/18 08:38:15;;;;;;;5.82;1.92;;;20.80;82.30;;;;;;6245658;23;20000;-82
2023/05/18 08:41:07;;;;;;;11.93;1.90;;;20.80;82.30;;;;;;6244709;23;20020;-82
2023/05/18 08:43:37;;;;;;;5.82;1.25;;;20.80;82.30;;;;;;6246712;23;20000;-81
2023/05/18 08:46:30;;;;;;;21.52;3.30;;;20.80;82.30;;;;;;6246952;23;20007;-81
2023/05/18 08:48:58;;;;;;;8.32;2.30;;;20.90;82.90;;;;;;6246963;23;20006;-81
2023/05/18 08:51:27;;;;;;;6.90;2.13;;;20.90;82.40;;;;;;6246802;23;20061;-81
2023/05/18 08:53:53;;;;;;;8.63;2.00;;;21.00;82.30;;;;;;6246756;23;20442;-81
2023/05/18 08:56:23;;;;;;;5.68;2.38;;;21.10;82.60;;;;;;6247333;23;20000;-86
2023/05/18 08:58:51;;;;;;;11.13;2.45;;;21.10;82.30;;;;;;6247762;23;20015;-83
2023/05/18 09:01:16;;;;;;;8.63;2.50;;;21.10;82.30;;;;;;6246903;23;20004;-85
2023/05/18 09:03:45;;;;;;;6.72;1.70;;;21.10;82.90;;;;;;6248465;23;20016;-85
2023/05/18 09:06:11;;;;;;;4.25;1.65;;;21.00;82.90;;;;;;6248599;23;20023;-81
2023/05/18 09:08:38;;;;;;;6.63;1.58;;;21.00;83.40;;;;;;6222685;23;20031;-82
2023/05/18 09:11:04;;;;;;;6.15;1.50;;;20.90;83.70;;;;;;6247664;23;20022;-84
2023/05/18 09:13:30;;;;;;;6.20;1.70;;;20.80;84.20;;;;;;6248668;23;20024;-87
2023/05/18 09:15:56;;;;;;;4.05;1.30;;;20.70;84.60;;;;;;6256789;23;20539;-88
2023/05/18 09:18:22;;;;;;;4.10;1.50;;;20.60;85.60;;;;;;6258644;23;20003;-84
2023/05/18 09:20:47;;;;;;;8.57;1.65;;;20.50;85.40;;;;;;6219858;23;20012;-84
2023/05/18 09:23:14;;;;;;;10.40;1.70;;;20.50;85.50;;;;;;6247180;23;20099;-84
2023/05/18 09:25:45;;;;;;;7.53;1.42;;;20.50;85.40;;;;;;6247340;23;20387;-83
2023/05/18 09:28:25;;;;;;;5.60;1.58;;;20.50;85.30;;;;;;6246663;23;20012;-85
2023/05/18 09:30:52;;;;;;;4.70;1.65;;;20.40;85.50;;;;;;6246960;23;20014;-84
2023/05/18 09:33:22;;;;;;;7.13;1.88;;;20.40;85.40;;;;;;6247267;23;20087;-84
2023/05/18 09:35:51;;;;;;;4.38;1.67;;;20.40;85.50;;;;;;6218921;23;20016;-86
2023/05/18 09:38:22;;;;;;;4.85;2.15;;;20.40;85.50;;;;;;6247218;23;20008;-80
2023/05/18 09:40:48;;;;;;;7.07;1.83;;;20.40;85.70;;;;;;6246882;23;20075;-84
2023/05/18 09:43:17;;;;;;;5.63;2.10;;;20.50;86.10;;;;;;6220252;23;20012;-86
2023/05/18 09:45:46;;;;;;;10.00;2.10;;;20.60;86.50;;;;;;6246825;23;20071;-85
2023/05/18 09:48:13;;;;;;;12.82;2.45;;;20.60;86.30;;;;;;6246918;23;20414;-87
2023/05/18 09:50:39;;;;;;;9.48;2.17;;;20.60;86.90;;;;;;6250172;23;20012;-85
2023/05/18 09:53:09;;;;;;;7.68;1.42;;;20.70;86.90;;;;;;6246244;23;20008;-84
2023/05/18 09:55:45;;;;;;;5.38;1.50;;;20.60;86.50;;;;;;6247568;23;20079;-85
2023/05/18 09:58:11;;;;;;;8.77;1.70;;;20.70;86.10;;;;;;6248401;23;20000;-87
2023/05/18 10:00:41;;;;;;;7.03;1.15;;;20.70;85.90;;;;;;6248043;23;20096;-80
2023/05/18 10:03:23;;;;;;;3.72;1.20;;;20.70;85.70;;;;;;6223716;23;20024;-83
2023/05/18 10:05:49;;;;;;;6.03;1.60;;;20.60;85.70;;;;;;6250746;23;20000;-83
2023/05/18 10:08:15;;;;;;;5.55;1.77;;;20.60;85.60;;;;;;6246333;23;20332;-80
2023/05/18 10:10:46;;;;;;;5.90;1.58;;;20.70;85.60;;;;;;6245964;23;20023;-82
2023/05/18 10:13:14;;;;;;;10.40;2.40;;;20.70;85.80;;;;;;6248015;23;19996;-85
2023/05/18 10:15:46;;;;;;;8.40;2.70;;;20.80;85.90;;;;;;6222228;23;20004;-86
2023/05/18 10:18:15;;;;;;;10.57;2.85;;;20.80;86.10;;;;;;6246570;23;20007;-77
2023/05/18 10:20:42;;;;;;;8.57;4.07;;;20.90;86.20;;;;;;6218175;23;20004;-71
2023/05/18 10:23:10;;;;;;;8.05;4.25;;;21.00;86.20;;;;;;6245043;23;19996;-70
2023/05/18 10:25:36;;;;;;;10.40;3.88;;;21.10;86.40;;;;;;6244955;23;20426;-71
2023/05/18 10:28:06;;;;;;;8.43;3.00;;;21.20;86.60;;;;;;6245026;23;19996;-73
2023/05/18 10:30:33;;;;;;;6.13;2.08;;;21.20;86.40;;;;;;6244933;23;20008;-71
2023/05/18 10:33:00;;;;;;;6.20;2.00;;;21.30;86.10;;;;;;6244738;23;20023;-70
2023/05/18 10:35:27;;;;;;;5.30;1.65;;;21.30;86.00;;;;;;6244466;23;20400;-70
2023/05/18 10:37:56;;;;;;;6.75;1.65;;;21.30;85.90;;;;;;6245135;23;20426;-71
2023/05/18 10:40:23;;;;;;;6.95;2.75;;;21.40;86.10;;;;;;6245658;23;20004;-70
2023/05/18 10:42:50;;;;;;;5.70;2.30;;;21.40;86.30;;;;;;6245138;23;20377;-66
2023/05/18 10:45:17;;;;;;;7.70;2.72;;;21.50;86.50;;;;;;6245213;23;20117;-71
2023/05/18 10:47:43;;;;;;;8.65;2.00;;;21.50;86.40;;;;;;6244935;23;20004;-70
2023/05/18 10:50:09;;;;;;;5.68;1.80;;;21.50;86.30;;;;;;6246234;23;20015;-71
2023/05/18 10:52:40;;;;;;;2.08;1.08;;;21.50;86.90;;;;;;6245656;23;20012;-70
2023/05/18 10:55:07;;;;;;;4.78;1.77;;;21.50;87.00;;;;;;6249374;23;20062;-70
2023/05/18 10:57:39;;;;;;;17.98;2.45;;;21.50;87.10;;;;;;6270733;23;20028;-69
2023/05/18 11:00:11;;;;;;;7.20;1.85;;;21.50;86.90;;;;;;6262061;23;20011;-70
2023/05/18 11:02:41;;;;;;;6.13;1.73;;;21.50;87.50;;;;;;6245535;23;20050;-71
2023/05/18 11:05:08;;;;;;;5.55;1.58;;;21.60;87.20;;;;;;6245943;23;20079;-71
2023/05/18 11:07:34;;;;;;;11.40;2.40;;;21.60;87.00;;;;;;6245235;23;20000;-74
2023/05/18 11:10:01;;;;;;;5.43;1.30;;;21.70;86.90;;;;;;6245325;23;20009;-77
2023/05/18 11:12:30;;;;;;;5.40;1.67;;;21.80;86.50;;;;;;6245629;23;20032;-76
2023/05/18 11:14:56;;;;;;;11.40;2.47;;;21.80;86.60;;;;;;6245345;23;20308;-79
2023/05/18 11:17:28;;;;;;;7.00;1.98;;;21.90;86.60;;;;;;6245635;23;20071;-76
2023/05/18 11:20:08;;;;;;;6.85;1.70;;;21.80;86.30;;;;;;6245259;23;20007;-78
2023/05/18 11:22:56;;;;;;;8.00;1.95;;;21.80;86.50;;;;;;6245118;23;20035;-78
2023/05/18 11:25:24;;;;;;;5.63;1.70;;;21.70;86.30;;;;;;6245983;23;20046;-79
2023/05/18 11:28:02;;;;;;;5.75;1.30;;;21.70;86.10;;;;;;6246286;23;20055;-78
2023/05/18 11:30:36;;;;;;;3.90;1.38;;;21.70;85.70;;;;;;6245660;23;20004;-78
2023/05/18 11:33:17;;;;;;;7.35;1.27;;;21.60;86.30;;;;;;6245451;23;19996;-79
2023/05/18 11:36:13;;;;;;;8.00;1.60;;;21.60;85.80;;;;;;6245294;23;20058;-76
2023/05/18 11:39:03;;;;;;;6.03;1.60;;;21.70;86.90;;;;;;6218945;23;20035;-78
2023/05/18 11:41:43;;;;;;;5.88;1.92;;;21.60;86.10;;;;;;6245317;23;20012;-77
2023/05/18 11:44:12;;;;;;;7.28;1.75;;;21.70;85.90;;;;;;6245794;23;20058;-76
2023/05/18 11:47:02;;;;;;;6.28;1.60;;;21.80;85.40;;;;;;6245351;23;20011;-79
2023/05/18 11:49:52;;;;;;;5.60;1.55;;;22.00;84.70;;;;;;6227060;23;20051;-77
2023/05/18 11:52:23;;;;;;;4.60;1.52;;;22.00;84.60;;;;;;6245225;23;20020;-77
2023/05/18 11:54:53;;;;;;;6.57;1.40;;;22.20;84.10;;;;;;6244802;23;20008;-76
2023/05/18 11:57:40;;;;;;;4.75;1.40;;;22.20;83.50;;;;;;6244858;23;20127;-78
2023/05/18 12:00:10;;;;;;;5.38;1.77;;;22.20;83.50;;;;;;6244821;23;20023;-77
2023/05/18 12:02:37;;;;;;;4.00;1.30;;;22.20;83.10;;;;;;6244740;23;20119;-77
2023/05/18 12:05:08;;;;;;;4.07;1.27;;;22.20;82.90;;;;;;6244899;23;20015;-77
2023/05/18 12:07:35;;;;;;;3.42;1.27;;;22.20;82.70;;;;;;6244842;23;20005;-77
2023/05/18 12:10:03;;;;;;;5.53;1.40;;;22.10;83.00;;;;;;6245106;23;20058;-76
2023/05/18 12:12:29;;;;;;;6.63;1.17;;;22.20;82.90;;;;;;6245139;23;20079;-76
2023/05/18 12:15:04;;;;;;;2.97;1.08;;;22.20;82.40;;;;;;6245048;23;20004;-77
2023/05/18 12:17:49;;;;;;;7.93;1.30;;;22.30;81.40;;;;;;6245895;23;20087;-77
2023/05/18 12:20:17;;;;;;;9.18;1.55;;;22.40;80.90;;;;;;6247269;23;20004;-78
2023/05/18 12:22:51;;;;;;;5.93;1.55;;;22.60;80.30;;;;;;6247002;23;20001;-76
2023/05/18 12:25:18;;;;;;;7.47;1.40;;;22.60;79.80;;;;;;6247014;23;20464;-77
2023/05/18 12:27:46;;;;;;;4.75;1.60;;;22.70;79.60;;;;;;6220136;23;20012;-77
2023/05/18 12:30:16;;;;;;;4.88;1.65;;;22.80;79.40;;;;;;6246837;23;20053;-77
2023/05/18 12:32:47;;;;;;;6.15;1.33;;;22.90;79.00;;;;;;6247911;23;20000;-77
2023/05/18 12:35:13;;;;;;;3.92;1.10;;;23.00;78.40;;;;;;6247768;23;19996;-77
2023/05/18 12:37:46;;;;;;;3.28;1.30;;;23.10;78.30;;;;;;6246978;23;20001;-77
2023/05/18 12:40:16;;;;;;;6.95;1.20;;;23.10;78.70;;;;;;6246854;23;20007;-77
2023/05/18 12:42:52;;;;;;;3.83;1.05;;;23.10;77.30;;;;;;6246884;23;20126;-77
2023/05/18 12:45:19;;;;;;;4.43;1.10;;;23.10;77.30;;;;;;6246524;23;20434;-78
2023/05/18 12:47:45;;;;;;;6.88;1.23;;;23.10;76.80;;;;;;6247608;23;20023;-78